createdAt,value
2017-12-29T00:01:10.202Z,99813.19
2017-12-29T00:03:37.846Z,99812.00
2017-12-29T00:06:05.446Z,99817.72
2017-12-29T00:08:33.910Z,99821.17
2017-12-29T00:11:01.470Z,99818.13
2017-12-29T00:13:29.042Z,99822.05
2017-12-29T00:15:56.607Z,99825.23
2017-12-29T00:18:24.181Z,99825.95
2017-12-29T00:20:51.755Z,99829.81
2017-12-29T00:23:20.141Z,99828.88
2017-12-29T00:25:47.705Z,99832.39
2017-12-29T00:28:15.266Z,99829.95
2017-12-29T00:30:42.830Z,99827.27
2017-12-29T00:33:10.438Z,99832.77
2017-12-29T00:35:38.006Z,99832.22
2017-12-29T00:38:05.580Z,99832.25
2017-12-29T00:40:33.150Z,99838.95
2017-12-29T00:43:00.709Z,99839.02
2017-12-29T00:45:28.270Z,99840.37
2017-12-29T00:47:55.838Z,99845.94
2017-12-29T00:50:23.405Z,99847.16
2017-12-29T00:52:50.977Z,99848.38
2017-12-29T00:55:18.547Z,99848.91
2017-12-29T00:57:46.110Z,99847.28
2017-12-29T01:00:13.669Z,99851.09
2017-12-29T01:02:41.230Z,99855.67
2017-12-29T01:05:08.803Z,99852.16
2017-12-29T01:07:36.379Z,99851.32
2017-12-29T01:10:03.951Z,99856.75
2017-12-29T01:12:31.522Z,99857.84
2017-12-29T01:14:59.167Z,99864.89
2017-12-29T01:17:26.826Z,99869.14
2017-12-29T01:19:54.393Z,99861.64
2017-12-29T01:22:21.962Z,99864.72
2017-12-29T01:24:49.535Z,99867.15
2017-12-29T01:27:18.287Z,99870.24
2017-12-29T01:29:45.849Z,99878.37
2017-12-29T01:32:13.522Z,99880.27
2017-12-29T01:34:41.089Z,99884.11
2017-12-29T01:37:08.666Z,99887.42
2017-12-29T01:39:36.225Z,99886.02
2017-12-29T01:42:03.802Z,99889.89
2017-12-29T01:44:31.371Z,99888.86
2017-12-29T01:46:58.939Z,99887.66
2017-12-29T01:49:26.510Z,99904.27
2017-12-29T01:51:54.082Z,99903.47
2017-12-29T01:54:21.645Z,99900.41
2017-12-29T01:56:49.234Z,99910.58
2017-12-29T01:59:16.899Z,99903.25
2017-12-29T02:01:44.562Z,99913.06
2017-12-29T02:04:12.129Z,99916.45
2017-12-29T02:06:39.702Z,99917.56
2017-12-29T02:09:07.985Z,99922.34
2017-12-29T02:11:35.594Z,99924.73
2017-12-29T02:16:36.992Z,99936.16
2017-12-29T02:19:04.596Z,99944.05
2017-12-29T02:21:32.267Z,99939.85
2017-12-29T02:23:59.874Z,99945.41
2017-12-29T02:26:27.448Z,99957.52
2017-12-29T02:28:55.918Z,99950.05
2017-12-29T02:31:23.574Z,99959.14
2017-12-29T02:33:51.245Z,99962.17
2017-12-29T02:36:18.907Z,99951.73
2017-12-29T02:38:46.502Z,99959.61
2017-12-29T02:41:14.066Z,99965.88
2017-12-29T02:43:42.531Z,99968.04
2017-12-29T02:46:10.090Z,99976.31
2017-12-29T02:48:37.664Z,99983.21
2017-12-29T02:51:05.225Z,99984.91
2017-12-29T02:53:32.798Z,99984.16
2017-12-29T02:56:00.413Z,99988.63
2017-12-29T02:58:28.985Z,99990.61
2017-12-29T03:00:56.552Z,99991.45
2017-12-29T03:03:24.217Z,99999.25
2017-12-29T03:05:52.609Z,99998.28
2017-12-29T03:08:21.014Z,99994.92
2017-12-29T03:10:48.617Z,100002.55
2017-12-29T03:13:16.196Z,100004.02
2017-12-29T03:15:44.608Z,100004.86
2017-12-29T03:18:12.255Z,100002.92
2017-12-29T03:20:39.825Z,100008.89
2017-12-29T03:23:07.398Z,100004.50
2017-12-29T03:25:35.699Z,100004.98
2017-12-29T03:28:03.309Z,100006.67
2017-12-29T03:30:31.789Z,100007.23
2017-12-29T03:33:00.198Z,100008.33
2017-12-29T03:35:27.834Z,100003.77
2017-12-29T03:37:55.401Z,100017.75
2017-12-29T03:40:23.098Z,100004.41
2017-12-29T03:42:50.673Z,100016.33
2017-12-29T03:45:18.246Z,100009.64
2017-12-29T03:47:45.813Z,100021.86
2017-12-29T03:50:13.418Z,100024.11
2017-12-29T03:52:40.989Z,100018.56
2017-12-29T03:55:09.318Z,100024.95
2017-12-29T03:57:36.892Z,100024.98
2017-12-29T04:00:05.361Z,100027.27
2017-12-29T04:02:32.978Z,100032.43
2017-12-29T04:05:00.614Z,100028.59
2017-12-29T04:07:28.312Z,100039.42
2017-12-29T04:09:55.877Z,100038.77
2017-12-29T04:12:23.447Z,100044.53
2017-12-29T04:14:51.095Z,100040.53
2017-12-29T04:17:18.658Z,100045.64
2017-12-29T04:19:46.229Z,100041.17
2017-12-29T04:22:13.797Z,100046.69
2017-12-29T04:24:41.459Z,100044.23
2017-12-29T04:27:09.145Z,100043.33
2017-12-29T04:29:36.829Z,100042.41
2017-12-29T04:32:04.401Z,100037.37
2017-12-29T04:34:31.965Z,100039.02
2017-12-29T04:36:59.538Z,100043.23
2017-12-29T04:39:27.114Z,100051.78
2017-12-29T04:41:54.699Z,100049.70
2017-12-29T04:44:23.081Z,100055.74
2017-12-29T04:46:50.663Z,100053.28
2017-12-29T04:49:18.240Z,100060.98
2017-12-29T04:51:45.807Z,100066.11
2017-12-29T04:54:14.149Z,100061.83
2017-12-29T04:56:41.724Z,100068.19
2017-12-29T04:59:09.294Z,100067.48
2017-12-29T05:01:36.918Z,100062.67
2017-12-29T05:04:04.493Z,100068.09
2017-12-29T05:06:32.073Z,100068.49
2017-12-29T05:08:59.678Z,100075.24
2017-12-29T05:11:27.248Z,100076.25
2017-12-29T05:13:55.853Z,100078.59
2017-12-29T05:16:23.467Z,100086.98
2017-12-29T05:18:51.033Z,100078.28
2017-12-29T05:21:18.603Z,100085.27
2017-12-29T05:23:46.216Z,100078.91
2017-12-29T05:26:13.798Z,100078.69
2017-12-29T05:28:42.293Z,100087.18
2017-12-29T05:31:09.862Z,100094.28
2017-12-29T05:33:37.438Z,100097.33
2017-12-29T05:36:05.002Z,100100.28
2017-12-29T05:38:32.574Z,100097.63
2017-12-29T05:41:00.153Z,100102.20
2017-12-29T05:43:27.724Z,100107.95
2017-12-29T05:45:55.294Z,100104.98
2017-12-29T05:48:22.910Z,100104.81
2017-12-29T05:50:50.483Z,100108.66
2017-12-29T05:53:18.056Z,100106.30
2017-12-29T05:55:45.628Z,100110.88
2017-12-29T05:58:13.210Z,100102.55
2017-12-29T06:00:40.828Z,100108.79
2017-12-29T06:03:08.398Z,100108.13
2017-12-29T06:05:36.901Z,100106.32
2017-12-29T06:08:04.578Z,100110.48
2017-12-29T06:10:32.147Z,100109.28
2017-12-29T06:12:59.726Z,100107.77
2017-12-29T06:15:27.334Z,100113.74
2017-12-29T06:17:54.930Z,100109.44
2017-12-29T06:20:23.254Z,100111.56
2017-12-29T06:22:50.834Z,100105.97
2017-12-29T06:25:18.407Z,100106.84
2017-12-29T06:27:46.874Z,100106.70
2017-12-29T06:30:14.459Z,100110.43
2017-12-29T06:32:42.034Z,100110.31
2017-12-29T06:35:09.750Z,100114.47
2017-12-29T06:37:38.138Z,100127.27
2017-12-29T06:40:06.618Z,100126.19
2017-12-29T06:42:34.998Z,100129.27
2017-12-29T06:45:03.109Z,100129.91
2017-12-29T06:47:30.839Z,100132.17
2017-12-29T06:49:59.313Z,100136.33
2017-12-29T06:52:27.578Z,100138.03
2017-12-29T06:54:55.927Z,100141.56
2017-12-29T06:57:23.506Z,100144.63
2017-12-29T06:59:51.069Z,100142.75
2017-12-29T07:02:19.654Z,100156.81
2017-12-29T07:04:47.287Z,100157.42
2017-12-29T07:07:14.866Z,100159.70
2017-12-29T07:09:42.507Z,100156.86
2017-12-29T07:12:10.170Z,100159.87
2017-12-29T07:14:38.501Z,100167.73
2017-12-29T07:17:06.074Z,100159.77
2017-12-29T07:19:33.645Z,100163.08
2017-12-29T07:22:01.232Z,100163.95
2017-12-29T07:24:28.872Z,100157.09
2017-12-29T07:27:11.703Z,100168.52
2017-12-29T07:29:47.345Z,100166.67
2017-12-29T07:32:15.333Z,100171.69
2017-12-29T07:34:42.993Z,100173.13
2017-12-29T07:37:10.562Z,100175.08
2017-12-29T07:39:38.141Z,100182.37
2017-12-29T07:42:05.777Z,100181.73
2017-12-29T07:44:33.354Z,100177.19
2017-12-29T07:47:00.919Z,100181.08
2017-12-29T07:49:28.566Z,100180.16
2017-12-29T07:51:56.142Z,100178.97
2017-12-29T07:54:23.750Z,100193.16
2017-12-29T07:56:51.357Z,100197.28
2017-12-29T07:59:18.965Z,100187.26
2017-12-29T08:01:46.577Z,100184.31
2017-12-29T08:04:14.237Z,100186.20
2017-12-29T08:06:41.813Z,100188.46
2017-12-29T08:09:10.412Z,100192.25
2017-12-29T08:11:38.045Z,100209.04
2017-12-29T08:14:05.626Z,100209.78
2017-12-29T08:16:33.275Z,100208.29
2017-12-29T08:19:00.930Z,100212.92
2017-12-29T08:21:28.506Z,100213.50
2017-12-29T08:23:56.078Z,100213.92
2017-12-29T08:26:23.765Z,100216.33
2017-12-29T08:28:51.336Z,100221.38
2017-12-29T08:31:20.319Z,100213.29
2017-12-29T08:33:47.938Z,100221.64
2017-12-29T08:36:15.513Z,100218.64
2017-12-29T08:38:43.093Z,100222.88
2017-12-29T08:41:10.861Z,100223.66
2017-12-29T08:43:38.450Z,100228.41
2017-12-29T08:46:06.028Z,100227.12
2017-12-29T08:48:33.607Z,100223.98
2017-12-29T08:51:01.174Z,100234.45
2017-12-29T08:53:29.616Z,100235.62
2017-12-29T08:55:57.570Z,100240.55
2017-12-29T08:58:26.182Z,100239.68
2017-12-29T09:00:53.759Z,100242.48
2017-12-29T09:03:22.152Z,100258.02
2017-12-29T09:05:49.854Z,100251.13
2017-12-29T09:08:18.230Z,100251.10
2017-12-29T09:10:45.802Z,100258.55
2017-12-29T09:13:13.374Z,100259.52
2017-12-29T09:15:41.114Z,100273.58
2017-12-29T09:18:08.696Z,100273.31
2017-12-29T09:20:36.266Z,100275.47
2017-12-29T09:23:03.883Z,100277.70
2017-12-29T09:25:31.464Z,100280.73
2017-12-29T09:27:59.082Z,100278.59
2017-12-29T09:30:26.663Z,100273.25
2017-12-29T09:32:54.418Z,100280.67
2017-12-29T09:35:21.986Z,100278.72
2017-12-29T09:37:50.342Z,100287.67
2017-12-29T09:40:17.939Z,100276.62
2017-12-29T09:42:45.546Z,100279.18
2017-12-29T09:45:13.205Z,100278.22
2017-12-29T09:47:40.829Z,100270.98
2017-12-29T09:50:08.397Z,100277.39
2017-12-29T09:52:36.070Z,100269.36
2017-12-29T09:55:03.698Z,100267.02
2017-12-29T09:57:31.351Z,100258.70
2017-12-29T09:59:58.932Z,100265.27
2017-12-29T10:02:26.512Z,100261.38
2017-12-29T10:04:54.131Z,100253.63
2017-12-29T10:07:21.794Z,100251.05
2017-12-29T10:09:49.519Z,100253.89
2017-12-29T10:12:17.128Z,100251.86
2017-12-29T10:14:44.753Z,100245.16
2017-12-29T10:17:12.363Z,100243.97
2017-12-29T10:19:40.016Z,100247.32
2017-12-29T10:22:07.600Z,100250.69
2017-12-29T10:24:35.177Z,100247.98
2017-12-29T10:27:08.027Z,100246.23
2017-12-29T10:29:35.610Z,100247.75
2017-12-29T10:32:03.186Z,100247.13
2017-12-29T10:34:30.775Z,100239.05
2017-12-29T10:36:58.346Z,100237.19
2017-12-29T10:39:25.931Z,100238.75
2017-12-29T10:41:54.444Z,100233.54
2017-12-29T10:44:22.062Z,100239.14
2017-12-29T10:46:50.660Z,100241.39
2017-12-29T10:49:18.243Z,100244.89
2017-12-29T10:51:45.875Z,100241.53
2017-12-29T10:54:14.256Z,100246.67
2017-12-29T10:56:41.887Z,100240.56
2017-12-29T10:59:09.500Z,100235.98
2017-12-29T11:01:37.143Z,100228.30
2017-12-29T11:04:04.757Z,100212.75
2017-12-29T11:06:32.325Z,100223.61
2017-12-29T11:08:59.899Z,100222.41
2017-12-29T11:11:27.511Z,100223.48
2017-12-29T11:13:55.083Z,100220.88
2017-12-29T11:16:23.585Z,100225.62
2017-12-29T11:18:51.158Z,100223.16
2017-12-29T11:21:19.547Z,100217.30
2017-12-29T11:23:47.121Z,100209.91
2017-12-29T11:26:14.695Z,100219.67
2017-12-29T11:28:42.267Z,100208.51
2017-12-29T11:31:09.838Z,100204.25
2017-12-29T11:33:37.450Z,100197.16
2017-12-29T11:36:05.879Z,100194.13
2017-12-29T11:38:33.486Z,100195.25
2017-12-29T11:41:01.095Z,100189.39
2017-12-29T11:43:28.666Z,100187.48
2017-12-29T11:45:56.307Z,100182.58
2017-12-29T11:48:24.782Z,100180.79
2017-12-29T11:50:52.402Z,100177.88
2017-12-29T11:53:19.981Z,100176.95
2017-12-29T11:55:47.572Z,100183.05
2017-12-29T11:58:15.147Z,100183.54
2017-12-29T12:00:42.719Z,100178.20
2017-12-29T12:03:10.286Z,100174.23
2017-12-29T12:05:37.865Z,100178.63
2017-12-29T12:08:05.445Z,100182.79
2017-12-29T12:10:33.007Z,100170.50
2017-12-29T12:13:00.574Z,100168.23
2017-12-29T12:15:28.847Z,100166.20
2017-12-29T12:17:56.495Z,100169.63
2017-12-29T12:20:24.100Z,100163.25
2017-12-29T12:22:51.675Z,100161.81
2017-12-29T12:25:20.019Z,100164.41
2017-12-29T12:27:47.590Z,100159.41
2017-12-29T12:30:15.203Z,100158.28
2017-12-29T12:32:42.891Z,100164.87
2017-12-29T12:35:10.471Z,100167.84
2017-12-29T12:37:38.266Z,100162.85
2017-12-29T12:40:05.864Z,100166.80
2017-12-29T12:42:33.446Z,100160.63
2017-12-29T12:45:01.852Z,100161.33
2017-12-29T12:47:29.523Z,100156.72
2017-12-29T12:49:58.101Z,100163.67
2017-12-29T12:52:25.766Z,100161.63
2017-12-29T12:54:53.685Z,100171.56
2017-12-29T12:57:21.263Z,100163.98
2017-12-29T12:59:48.831Z,100161.21
2017-12-29T13:02:16.398Z,100166.70
2017-12-29T13:04:43.963Z,100165.41
2017-12-29T13:07:11.913Z,100167.65
2017-12-29T13:09:39.510Z,100169.74
2017-12-29T13:12:07.079Z,100167.62
2017-12-29T13:14:34.698Z,100166.55
2017-12-29T13:17:02.269Z,100174.98
2017-12-29T13:19:29.844Z,100174.41
2017-12-29T13:21:57.419Z,100174.39
2017-12-29T13:24:25.043Z,100176.78
2017-12-29T13:26:52.626Z,100177.52
2017-12-29T13:29:20.201Z,100168.28
2017-12-29T13:31:47.799Z,100176.37
2017-12-29T13:34:15.423Z,100180.49
2017-12-29T13:36:43.092Z,100175.20
2017-12-29T13:39:10.666Z,100183.93
2017-12-29T13:41:39.246Z,100190.42
2017-12-29T13:44:06.830Z,100188.83
2017-12-29T13:46:35.183Z,100185.66
2017-12-29T13:49:02.751Z,100198.19
2017-12-29T13:51:30.403Z,100196.03
2017-12-29T13:53:58.668Z,100205.94
2017-12-29T13:56:26.299Z,100206.14
2017-12-29T13:58:53.895Z,100207.09
2017-12-29T14:01:21.562Z,100204.15
2017-12-29T14:03:49.131Z,100215.05
2017-12-29T14:06:16.707Z,100221.08
2017-12-29T14:08:44.275Z,100220.84
2017-12-29T14:11:11.868Z,100223.69
2017-12-29T14:13:39.438Z,100221.64
2017-12-29T14:16:07.968Z,100221.37
2017-12-29T14:18:35.646Z,100235.50
2017-12-29T14:21:03.270Z,100231.69
2017-12-29T14:23:30.935Z,100230.34
2017-12-29T14:25:58.550Z,100241.72
2017-12-29T14:28:26.128Z,100242.59
2017-12-29T14:30:53.824Z,100238.69
2017-12-29T14:33:21.394Z,100236.25
2017-12-29T14:35:48.962Z,100232.14
2017-12-29T14:38:16.578Z,100238.81
2017-12-29T14:40:44.150Z,100233.18
2017-12-29T14:43:11.764Z,100234.08
2017-12-29T14:45:39.341Z,100224.72
2017-12-29T14:48:06.959Z,100225.77
2017-12-29T14:50:34.580Z,100230.30
2017-12-29T14:53:02.146Z,100237.38
2017-12-29T14:55:29.710Z,100241.77
2017-12-29T14:57:57.283Z,100243.38
2017-12-29T15:00:24.850Z,100236.77
2017-12-29T15:02:52.450Z,100236.73
2017-12-29T15:05:20.021Z,100244.84
2017-12-29T15:07:47.594Z,100252.92
2017-12-29T15:10:15.201Z,100246.94
2017-12-29T15:12:42.766Z,100246.72
2017-12-29T15:15:10.423Z,100243.07
2017-12-29T15:17:38.086Z,100247.23
2017-12-29T15:20:05.703Z,100255.31
2017-12-29T15:22:33.276Z,100251.45
2017-12-29T15:25:00.838Z,100256.42
2017-12-29T15:27:28.429Z,100256.06
2017-12-29T15:29:56.106Z,100249.51
2017-12-29T15:32:23.670Z,100249.62
2017-12-29T15:34:52.026Z,100243.20
2017-12-29T15:37:20.419Z,100248.45
2017-12-29T15:39:48.084Z,100246.27
2017-12-29T15:42:16.454Z,100238.03
2017-12-29T15:44:45.004Z,100242.84
2017-12-29T15:47:12.644Z,100236.84
2017-12-29T15:49:40.235Z,100237.74
2017-12-29T15:52:07.850Z,100235.48
2017-12-29T15:54:36.192Z,100235.88
2017-12-29T15:57:04.535Z,100234.14
2017-12-29T15:59:33.022Z,100233.66
2017-12-29T16:02:00.606Z,100228.16
2017-12-29T16:04:28.174Z,100225.36
2017-12-29T16:06:55.743Z,100228.06
2017-12-29T16:09:23.414Z,100229.67
2017-12-29T16:11:50.995Z,100227.37
2017-12-29T16:14:18.575Z,100230.50
2017-12-29T16:16:46.235Z,100230.05
2017-12-29T16:19:13.858Z,100223.18
2017-12-29T16:21:41.478Z,100222.25
2017-12-29T16:24:09.090Z,100223.30
2017-12-29T16:26:36.681Z,100225.68
2017-12-29T16:29:05.980Z,100225.21
2017-12-29T16:31:33.584Z,100226.05
2017-12-29T16:34:01.194Z,100224.81
2017-12-29T16:36:28.872Z,100228.28
2017-12-29T16:38:56.443Z,100220.68
2017-12-29T16:41:24.942Z,100215.42
2017-12-29T16:43:53.318Z,100222.66
2017-12-29T16:46:20.899Z,100213.59
2017-12-29T16:48:49.396Z,100202.91
2017-12-29T16:51:17.854Z,100201.53
2017-12-29T16:53:46.300Z,100213.72
2017-12-29T16:56:13.931Z,100208.80
2017-12-29T16:58:42.401Z,100203.55
2017-12-29T17:01:10.007Z,100206.14
2017-12-29T17:03:37.630Z,100200.50
2017-12-29T17:06:05.336Z,100202.67
2017-12-29T17:08:33.059Z,100203.67
2017-12-29T17:11:01.448Z,100203.77
2017-12-29T17:13:29.808Z,100203.41
2017-12-29T17:15:57.415Z,100203.09
2017-12-29T17:18:25.047Z,100195.15
2017-12-29T17:20:52.669Z,100189.48
2017-12-29T17:23:20.247Z,100187.53
2017-12-29T17:25:47.899Z,100194.55
2017-12-29T17:28:15.473Z,100192.63
2017-12-29T17:30:43.110Z,100199.63
2017-12-29T17:33:11.743Z,100188.64
2017-12-29T17:35:39.370Z,100184.78
2017-12-29T17:38:07.837Z,100187.77
2017-12-29T17:40:36.167Z,100175.53
2017-12-29T17:43:04.608Z,100174.24
2017-12-29T17:45:32.921Z,100173.47
2017-12-29T17:48:00.547Z,100172.48
2017-12-29T17:50:28.131Z,100181.09
2017-12-29T17:52:55.811Z,100164.73
2017-12-29T17:55:23.470Z,100163.09
2017-12-29T17:57:51.051Z,100152.02
2017-12-29T18:00:18.670Z,100155.55
2017-12-29T18:02:46.252Z,100153.00
2017-12-29T18:05:13.864Z,100148.46
2017-12-29T18:07:41.535Z,100148.93
2017-12-29T18:10:09.283Z,100154.81
2017-12-29T18:12:36.872Z,100161.19
2017-12-29T18:15:04.566Z,100153.45
2017-12-29T18:17:32.369Z,100146.19
2017-12-29T18:20:00.105Z,100146.95
2017-12-29T18:22:27.702Z,100144.30
2017-12-29T18:24:55.290Z,100147.39
2017-12-29T18:27:22.891Z,100147.06
2017-12-29T18:29:50.551Z,100133.80
2017-12-29T18:32:18.130Z,100125.20
2017-12-29T18:34:45.775Z,100125.16
2017-12-29T18:37:15.077Z,100131.81
2017-12-29T18:39:44.180Z,100124.87
2017-12-29T18:42:11.795Z,100120.84
2017-12-29T18:44:39.382Z,100119.78
2017-12-29T18:47:07.119Z,100120.61
2017-12-29T18:49:35.663Z,100117.02
2017-12-29T18:52:03.267Z,100119.45
2017-12-29T18:54:31.894Z,100121.39
2017-12-29T18:57:00.407Z,100126.83
2017-12-29T18:59:27.990Z,100117.38
2017-12-29T19:01:55.598Z,100118.31
2017-12-29T19:04:23.259Z,100115.85
2017-12-29T19:06:50.854Z,100114.50
2017-12-29T19:09:18.432Z,100124.86
2017-12-29T19:11:46.058Z,100124.66
2017-12-29T19:14:13.638Z,100117.82
2017-12-29T19:16:41.235Z,100127.96
2017-12-29T19:19:11.860Z,100130.05
2017-12-29T19:21:39.438Z,100117.73
2017-12-29T19:24:07.019Z,100116.82
2017-12-29T19:26:34.689Z,100126.66
2017-12-29T19:29:02.279Z,100124.13
2017-12-29T19:31:29.866Z,100116.16
2017-12-29T19:33:57.485Z,100116.80
2017-12-29T19:36:25.062Z,100116.22
2017-12-29T19:38:53.423Z,100110.47
2017-12-29T19:41:21.091Z,100114.58
2017-12-29T19:43:48.694Z,100112.16
2017-12-29T19:46:16.495Z,100116.69
2017-12-29T19:48:45.169Z,100117.11
2017-12-29T19:51:12.796Z,100116.58
2017-12-29T19:53:40.427Z,100111.02
2017-12-29T19:56:08.088Z,100107.59
2017-12-29T19:58:36.467Z,100109.69
2017-12-29T20:01:05.843Z,100104.91
2017-12-29T20:03:33.566Z,100105.29
2017-12-29T20:06:01.142Z,100108.20
2017-12-29T20:08:29.732Z,100105.82
2017-12-29T20:10:58.331Z,100104.95
2017-12-29T20:13:26.043Z,100101.10
2017-12-29T20:15:53.626Z,100093.98
2017-12-29T20:18:21.203Z,100101.23
2017-12-29T20:20:49.050Z,100096.30
2017-12-29T20:23:16.659Z,100097.16
2017-12-29T20:25:45.021Z,100105.86
2017-12-29T20:28:13.306Z,100106.53
2017-12-29T20:30:42.617Z,100104.75
2017-12-29T20:33:11.404Z,100111.95
2017-12-29T20:35:39.694Z,100105.02
2017-12-29T20:38:10.202Z,100105.94
2017-12-29T20:40:38.243Z,100103.58
2017-12-29T20:43:08.755Z,100098.41
2017-12-29T20:45:39.548Z,100089.94
2017-12-29T20:48:07.803Z,100092.35
2017-12-29T20:50:37.997Z,100092.11
2017-12-29T20:53:08.204Z,100090.38
2017-12-29T20:55:37.497Z,100091.23
2017-12-29T20:58:06.137Z,100079.62
2017-12-29T21:00:34.549Z,100078.25
2017-12-29T21:03:03.537Z,100073.08
2017-12-29T21:05:31.531Z,100076.52
2017-12-29T21:07:59.842Z,100076.38
2017-12-29T21:10:27.535Z,100083.73
2017-12-29T21:12:55.277Z,100079.55
2017-12-29T21:15:23.348Z,100068.16
2017-12-29T21:17:51.914Z,100073.88
2017-12-29T21:20:23.987Z,100076.28
2017-12-29T21:22:51.697Z,100072.07
2017-12-29T21:25:20.419Z,100069.88
2017-12-29T21:27:48.351Z,100076.70
2017-12-29T21:30:18.313Z,100075.42
2017-12-29T21:32:46.650Z,100083.05
2017-12-29T21:35:14.298Z,100087.82
2017-12-29T21:37:43.219Z,100086.55
2017-12-29T21:40:12.040Z,100086.52
2017-12-29T21:42:39.714Z,100086.70
2017-12-29T21:45:07.734Z,100084.68
2017-12-29T21:47:37.136Z,100085.61
2017-12-29T21:50:05.682Z,100087.63
2017-12-29T21:52:33.260Z,100086.11
2017-12-29T21:55:01.826Z,100079.36
2017-12-29T21:57:30.367Z,100081.42
2017-12-29T21:59:57.943Z,100078.82
2017-12-29T22:02:25.556Z,100079.30
2017-12-29T22:04:53.266Z,100075.66
2017-12-29T22:07:20.846Z,100083.97
2017-12-29T22:09:49.218Z,100082.89
2017-12-29T22:12:17.533Z,100085.15
2017-12-29T22:14:45.110Z,100074.64
2017-12-29T22:17:12.812Z,100076.80
2017-12-29T22:19:40.393Z,100084.68
2017-12-29T22:22:08.083Z,100080.41
2017-12-29T22:24:35.752Z,100072.67
2017-12-29T22:27:04.111Z,100077.23
2017-12-29T22:29:31.682Z,100076.81
2017-12-29T22:31:59.302Z,100071.73
2017-12-29T22:34:26.960Z,100070.63
2017-12-29T22:36:54.581Z,100071.81
2017-12-29T22:39:22.188Z,100071.98
2017-12-29T22:41:49.798Z,100067.27
2017-12-29T22:44:17.378Z,100066.59
2017-12-29T22:46:45.731Z,100073.02
2017-12-29T22:49:13.302Z,100067.13
2017-12-29T22:51:40.954Z,100061.75
2017-12-29T22:54:08.566Z,100069.28
2017-12-29T22:56:36.146Z,100066.53
2017-12-29T22:59:03.786Z,100069.88
2017-12-29T23:01:31.424Z,100060.11
2017-12-29T23:03:59.005Z,100068.55
2017-12-29T23:06:26.582Z,100065.61
2017-12-29T23:08:54.235Z,100056.95
2017-12-29T23:11:22.042Z,100058.58
2017-12-29T23:13:49.630Z,100059.25
2017-12-29T23:16:17.199Z,100059.02
2017-12-29T23:18:44.913Z,100045.83
2017-12-29T23:21:12.517Z,100042.05
2017-12-29T23:23:40.138Z,100052.73
2017-12-29T23:26:07.857Z,100049.59
2017-12-29T23:28:36.194Z,100046.59
2017-12-29T23:31:03.769Z,100050.17
2017-12-29T23:33:31.349Z,100049.23
2017-12-29T23:35:58.929Z,100058.05
2017-12-29T23:38:26.543Z,100059.61
2017-12-29T23:40:54.169Z,100062.27
2017-12-29T23:43:21.745Z,100058.90
2017-12-29T23:45:49.386Z,100066.86
2017-12-29T23:48:16.957Z,100057.47
2017-12-29T23:50:44.613Z,100066.42
2017-12-29T23:53:12.240Z,100062.19
2017-12-29T23:55:39.823Z,100064.58
2017-12-29T23:58:07.452Z,100064.11
